Time,TemperatureF,DewpointF,PressureIn,WindDirection,WindDirectionDegrees,WindSpeedMPH,WindSpeedGustMPH,Humidity,HourlyPrecipIn,Conditions,Clouds,dailyrainin,SoftwareType,DateUTC
2013-10-11 00:24:00,51.0,45.0,-100.00,North,0,0.0,-999.0,80,-99.99,,,-99.99,,2013-10-11 04:24:00,
2013-10-11 00:44:00,51.0,45.0,-100.00,North,0,0.0,-999.0,80,-99.99,,,-99.99,,2013-10-11 04:44:00,
2013-10-11 01:23:00,52.0,45.0,-100.00,North,0,0.0,-999.0,76,-99.99,,,-99.99,,2013-10-11 05:23:00,
2013-10-11 01:43:00,52.0,45.0,-100.00,North,0,0.0,-999.0,77,-99.99,,,-99.99,,2013-10-11 05:43:00,
2013-10-11 01:52:00,51.0,45.0,-100.00,North,0,0.0,-999.0,80,-99.99,,,-99.99,,2013-10-11 05:52:00,
2013-10-11 02:02:00,51.0,45.0,-100.00,North,0,0.0,-999.0,80,-99.99,,,-99.99,,2013-10-11 06:02:00,
2013-10-11 02:22:00,52.0,46.0,-100.00,North,0,0.0,-999.0,78,-99.99,,,-99.99,,2013-10-11 06:22:00,
2013-10-11 02:43:00,53.0,46.0,-100.00,North,0,0.0,-999.0,76,-99.99,,,-99.99,,2013-10-11 06:43:00,
2013-10-11 03:22:00,51.0,46.0,-100.00,North,0,0.0,-999.0,85,-99.99,,,-99.99,,2013-10-11 07:22:00,
2013-10-11 03:42:00,51.0,46.0,-100.00,North,0,0.0,-999.0,84,-99.99,,,-99.99,,2013-10-11 07:42:00,
2013-10-11 04:22:00,52.0,47.0,-100.00,North,0,0.0,-999.0,84,-99.99,,,-99.99,,2013-10-11 08:22:00,
2013-10-11 04:42:00,52.0,47.0,-100.00,North,0,0.0,-999.0,84,-99.99,,,-99.99,,2013-10-11 08:42:00,
2013-10-11 05:22:00,51.0,47.0,-100.00,North,0,0.0,-999.0,85,-99.99,,,-99.99,,2013-10-11 09:22:00,
2013-10-11 05:43:00,51.0,47.0,-100.00,North,0,0.0,-999.0,85,-99.99,,,-99.99,,2013-10-11 09:43:00,
2013-10-11 06:23:00,51.0,47.0,-100.00,North,0,0.0,-999.0,86,-99.99,,,-99.99,,2013-10-11 10:23:00,
2013-10-11 06:32:00,51.0,47.0,-100.00,North,0,0.0,-999.0,86,-99.99,,,-99.99,,2013-10-11 10:32:00,
2013-10-11 07:12:00,51.0,47.0,-100.00,North,0,0.0,-999.0,86,-99.99,,,-99.99,,2013-10-11 11:12:00,
2013-10-11 07:22:00,51.0,47.0,-100.00,North,0,0.0,-999.0,85,-99.99,,,-99.99,,2013-10-11 11:22:00,
2013-10-11 07:33:00,51.0,47.0,-100.00,North,0,0.0,-999.0,85,-99.99,,,-99.99,,2013-10-11 11:33:00,
2013-10-11 08:12:00,51.0,48.0,-100.00,North,0,0.0,-999.0,86,-99.99,,,-99.99,,2013-10-11 12:12:00,
2013-10-11 08:22:00,51.0,48.0,-100.00,North,0,0.0,-999.0,87,-99.99,,,-99.99,,2013-10-11 12:22:00,
2013-10-11 08:42:00,51.0,48.0,-100.00,North,0,0.0,-999.0,89,-99.99,,,-99.99,,2013-10-11 12:42:00,
2013-10-11 08:52:00,51.0,48.0,-100.00,North,0,0.0,-999.0,89,-99.99,,,-99.99,,2013-10-11 12:52:00,
2013-10-11 09:12:00,51.0,49.0,-100.00,North,0,0.0,-999.0,90,-99.99,,,-99.99,,2013-10-11 13:12:00,
2013-10-11 09:22:00,52.0,49.0,-100.00,North,0,0.0,-999.0,91,-99.99,,,-99.99,,2013-10-11 13:22:00,
2013-10-11 09:32:00,52.0,49.0,-100.00,North,0,0.0,-999.0,91,-99.99,,,-99.99,,2013-10-11 13:32:00,
2013-10-11 09:53:00,52.0,51.0,-100.00,North,0,0.0,-999.0,93,-99.99,,,-99.99,,2013-10-11 13:53:00,
2013-10-11 10:02:00,52.0,51.0,-100.00,North,0,0.0,-999.0,93,-99.99,,,-99.99,,2013-10-11 14:02:00,
2013-10-11 10:22:00,53.0,51.0,-100.00,North,0,0.0,-999.0,93,-99.99,,,-99.99,,2013-10-11 14:22:00,
2013-10-11 10:42:00,54.0,52.0,-100.00,North,0,0.0,-999.0,90,-99.99,,,-99.99,,2013-10-11 14:42:00,
2013-10-11 10:52:00,55.0,51.0,-100.00,North,0,0.0,-999.0,87,-99.99,,,-99.99,,2013-10-11 14:52:00,
2013-10-11 11:02:00,55.0,51.0,-100.00,North,0,0.0,-999.0,87,-99.99,,,-99.99,,2013-10-11 15:02:00,
2013-10-11 11:22:00,56.0,51.0,-100.00,North,0,0.0,-999.0,83,-99.99,,,-99.99,,2013-10-11 15:22:00,
2013-10-11 11:44:00,56.0,51.0,-100.00,North,0,0.0,-999.0,82,-99.99,,,-99.99,,2013-10-11 15:44:00,
2013-10-11 11:54:00,58.0,50.0,-100.00,North,0,0.0,-999.0,76,-99.99,,,-99.99,,2013-10-11 15:54:00,
2013-10-11 12:13:00,59.0,51.0,-100.00,North,0,0.0,-999.0,73,-99.99,,,-99.99,,2013-10-11 16:13:00,
2013-10-11 12:22:00,59.0,51.0,-100.00,North,0,0.0,-999.0,73,-99.99,,,-99.99,,2013-10-11 16:22:00,
2013-10-11 12:43:00,60.0,48.0,-100.00,North,0,0.0,-999.0,64,-99.99,,,-99.99,,2013-10-11 16:43:00,
2013-10-11 12:53:00,59.0,49.0,-100.00,North,0,0.0,-999.0,69,-99.99,,,-99.99,,2013-10-11 16:53:00,
2013-10-11 13:12:00,60.0,49.0,-100.00,North,0,0.0,-999.0,65,-99.99,,,-99.99,,2013-10-11 17:12:00,
2013-10-11 13:22:00,60.0,49.0,-100.00,North,0,0.0,-999.0,65,-99.99,,,-99.99,,2013-10-11 17:22:00,
2013-10-11 13:43:00,61.0,47.0,-100.00,ESE,108,8.0,-999.0,60,-99.99,,,-99.99,,2013-10-11 17:43:00,
2013-10-11 13:53:00,62.0,47.0,-100.00,ENE,63,6.0,-999.0,58,-99.99,,,-99.99,,2013-10-11 17:53:00,
2013-10-11 14:02:00,62.0,47.0,-100.00,ENE,63,6.0,-999.0,58,-99.99,,,-99.99,,2013-10-11 18:02:00,
2013-10-11 14:22:00,62.0,46.0,-100.00,East,87,3.0,-999.0,55,-99.99,,,-99.99,,2013-10-11 18:22:00,
2013-10-11 14:43:00,62.0,46.0,-100.00,ENE,76,4.0,-999.0,57,-99.99,,,-99.99,,2013-10-11 18:43:00,
2013-10-11 14:53:00,62.0,45.0,-100.00,East,81,4.0,-999.0,54,-99.99,,,-99.99,,2013-10-11 18:53:00,
2013-10-11 15:02:00,62.0,45.0,-100.00,East,81,4.0,-999.0,54,-99.99,,,-99.99,,2013-10-11 19:02:00,
2013-10-11 15:22:00,62.0,47.0,-100.00,East,82,4.0,-999.0,56,-99.99,,,-99.99,,2013-10-11 19:22:00,
2013-10-11 15:42:00,63.0,46.0,-100.00,NE,50,4.0,-999.0,54,-99.99,,,-99.99,,2013-10-11 19:42:00,
2013-10-11 16:22:00,63.0,43.0,-100.00,ENE,71,6.0,-999.0,48,-99.99,,,-99.99,,2013-10-11 20:22:00,
2013-10-11 16:43:00,63.0,43.0,-100.00,NE,39,4.0,-999.0,47,-99.99,,,-99.99,,2013-10-11 20:43:00,
2013-10-11 17:22:00,64.0,45.0,-100.00,ESE,106,7.0,-999.0,50,-99.99,,,-99.99,,2013-10-11 21:22:00,
2013-10-11 17:43:00,64.0,40.0,-100.00,NE,48,8.0,-999.0,42,-99.99,,,-99.99,,2013-10-11 21:43:00,
2013-10-11 18:24:00,63.0,45.0,-100.00,ENE,58,4.0,-999.0,52,-99.99,,,-99.99,,2013-10-11 22:24:00,
2013-10-11 18:43:00,64.0,47.0,-100.00,North,0,0.0,-999.0,53,-99.99,,,-99.99,,2013-10-11 22:43:00,
2013-10-11 19:22:00,60.0,47.0,-100.00,East,82,2.0,-999.0,60,-99.99,,,-99.99,,2013-10-11 23:22:00,
2013-10-11 19:42:00,60.0,47.0,-100.00,North,0,0.0,-999.0,63,-99.99,,,-99.99,,2013-10-11 23:42:00,
2013-10-11 20:22:00,60.0,48.0,-100.00,North,0,0.0,-999.0,64,-99.99,,,-99.99,,2013-10-12 00:22:00,
2013-10-11 20:42:00,59.0,49.0,-100.00,North,0,0.0,-999.0,68,-99.99,,,-99.99,,2013-10-12 00:42:00,
2013-10-11 21:22:00,58.0,49.0,-100.00,North,0,0.0,-999.0,72,-99.99,,,-99.99,,2013-10-12 01:22:00,
2013-10-11 21:42:00,57.0,49.0,-100.00,North,0,0.0,-999.0,73,-99.99,,,-99.99,,2013-10-12 01:42:00,
2013-10-11 22:23:00,55.0,49.0,-100.00,North,0,0.0,-999.0,79,-99.99,,,-99.99,,2013-10-12 02:23:00,
2013-10-11 22:42:00,55.0,48.0,-100.00,North,0,0.0,-999.0,77,-99.99,,,-99.99,,2013-10-12 02:42:00,
2013-10-11 23:23:00,53.0,47.0,-100.00,North,0,0.0,-999.0,80,-99.99,,,-99.99,,2013-10-12 03:23:00,
2013-10-11 23:44:00,52.0,47.0,-100.00,North,0,0.0,-999.0,84,-99.99,,,-99.99,,2013-10-12 03:44:00,